Time;durP1;ratioP1;P1;durP2;ratioP2;P2;SDS_P1;SDS_P2;PMS_P1;PMS_P2;Temp;Humidity;BMP_temperature;BMP_pressure;BME280_temperature;BME280_humidity;BME280_pressure;Samples;Min_cycle;Max_cycle;Signal;HPM_P1;HPM_P2
2023/01/07 00:01:47;;;;;;;2.90;2.70;;;;;;;14.92;52.93;97216.84;4988142;28;20202;-91
2023/01/07 00:04:14;;;;;;;3.33;2.90;;;;;;;16.32;53.02;97427.34;4971270;28;20227;-89
2023/01/07 00:06:42;;;;;;;3.23;2.93;;;;;;;15.35;52.72;97322.81;4974653;28;20203;-91
2023/01/07 00:09:15;;;;;;;3.37;3.03;;;;;;;17.51;52.94;97628.56;4969519;28;20647;-91
2023/01/07 00:11:42;;;;;;;3.30;3.00;;;;;;;18.28;53.16;97775.41;4973813;28;20223;-91
2023/01/07 00:14:10;;;;;;;3.10;2.80;;;;;;;12.91;52.89;96897.38;4960224;28;20233;-90
2023/01/07 00:16:37;;;;;;;3.30;2.90;;;;;;;19.58;53.16;97991.09;4993122;28;20199;-91
2023/01/07 00:19:04;;;;;;;3.27;2.97;;;;;;;18.70;52.88;97847.75;4991555;28;20207;-91
2023/01/07 00:21:34;;;;;;;3.60;2.90;;;;;;;13.37;52.70;96915.75;4960479;28;20227;-89
2023/01/07 00:24:03;;;;;;;3.70;3.23;;;;;;;16.73;52.79;97579.03;4977667;28;20290;-91
2023/01/07 00:26:33;;;;;;;2.97;2.67;;;;;;;15.64;52.96;97353.03;4979160;28;20282;-90
2023/01/07 00:29:00;;;;;;;3.30;3.00;;;;;;;13.80;52.88;96976.06;4973902;28;20298;-90
2023/01/07 00:31:32;;;;;;;3.20;2.90;;;;;;;15.64;52.94;97398.63;4975067;28;20235;-91
2023/01/07 00:36:30;;;;;;;2.70;2.50;;;;;;;17.30;52.96;97574.19;4971442;28;20195;-91
2023/01/07 00:39:11;;;;;;;2.97;2.77;;;;;;;16.71;52.95;97472.38;4963529;28;20202;-91
2023/01/07 00:41:39;;;;;;;3.97;2.90;;;;;;;15.89;52.83;97328.09;4974191;28;20203;-91
2023/01/07 00:44:09;;;;;;;3.30;3.00;;;;;;;15.91;52.59;97320.56;4961708;28;20663;-90
2023/01/07 00:46:35;;;;;;;3.07;2.77;;;;;;;15.06;52.73;97177.88;4980346;28;20289;-91
2023/01/07 00:49:05;;;;;;;3.40;3.10;;;;;;;13.06;52.61;96864.53;4979689;28;20273;-91
2023/01/07 00:51:33;;;;;;;2.87;2.67;;;;;;;13.80;52.60;97020.66;4988098;28;20575;-90
2023/01/07 00:54:02;;;;;;;3.33;3.03;;;;;;;17.58;52.73;97610.22;4958453;28;20211;-90
2023/01/07 00:56:29;;;;;;;2.67;2.47;;;;;;;12.97;52.34;96833.78;4967408;28;20713;-91
2023/01/07 00:58:55;;;;;;;3.40;2.80;;;;;;;14.51;52.40;97095.94;4988560;28;20207;-92
2023/01/07 01:01:22;;;;;;;3.17;2.87;;;;;;;16.43;52.96;97480.34;5006698;28;20214;-91
2023/01/07 01:03:49;;;;;;;3.20;2.90;;;;;;;14.99;52.75;97270.38;4994017;28;20217;-91
2023/01/07 01:06:16;;;;;;;3.33;3.03;;;;;;;13.06;53.19;96847.75;4978194;28;20211;-90
2023/01/07 01:08:46;;;;;;;2.77;2.57;;;;;;;17.20;53.00;97569.47;4984809;28;20198;-92
2023/01/07 01:11:14;;;;;;;2.80;2.60;;;;;;;17.41;53.25;97611.13;4971891;28;20202;-91
2023/01/07 01:13:41;;;;;;;3.47;3.17;;;;;;;16.48;53.08;97477.13;4957485;28;20223;-92
2023/01/07 01:16:09;;;;;;;3.23;2.93;;;;;;;15.68;53.05;97316.03;4986661;28;20203;-88
2023/01/07 01:18:39;;;;;;;3.03;2.73;;;;;;;13.83;52.71;97021.66;4947339;28;20207;-91
2023/01/07 01:21:07;;;;;;;3.20;2.90;;;;;;;14.56;53.08;97082.72;4979889;28;20207;-91
2023/01/07 01:23:34;;;;;;;3.20;2.90;;;;;;;17.30;52.93;97567.44;4986503;28;20762;-91
2023/01/07 01:26:05;;;;;;;3.03;2.70;;;;;;;15.37;52.89;97288.34;4967314;28;20257;-91
2023/01/07 01:28:32;;;;;;;3.20;2.90;;;;;;;13.88;52.75;97070.75;4968693;28;20202;-90
2023/01/07 01:31:02;;;;;;;3.20;2.80;;;;;;;15.73;52.97;97370.34;4991736;28;20206;-90
2023/01/07 01:33:29;;;;;;;3.13;2.83;;;;;;;17.59;52.93;97648.41;4992632;28;20237;-91
2023/01/07 01:35:56;;;;;;;2.90;2.70;;;;;;;16.80;53.09;97488.03;4964036;28;20225;-91
2023/01/07 01:38:22;;;;;;;3.37;3.07;;;;;;;17.27;52.70;97645.16;4987525;28;20294;-91
2023/01/07 01:40:49;;;;;;;2.87;2.63;;;;;;;13.71;52.95;97053.03;5006880;28;20198;-90
2023/01/07 01:43:30;;;;;;;2.93;2.73;;;;;;;14.91;53.45;97243.81;4981277;28;20253;-91
2023/01/07 01:46:15;;;;;;;3.00;2.70;;;;;;;17.46;53.11;97637.63;4990635;28;20206;-90
2023/01/07 01:48:47;;;;;;;2.70;2.50;;;;;;;16.46;53.29;97425.50;4978870;28;20202;-91
2023/01/07 01:51:18;;;;;;;3.50;3.20;;;;;;;16.57;53.16;97430.25;4982849;28;20249;-91
2023/01/07 01:53:45;;;;;;;3.07;2.77;;;;;;;15.52;52.67;97309.38;4980356;28;20219;-91
2023/01/07 01:56:16;;;;;;;3.20;2.90;;;;;;;18.31;53.31;97756.84;4967103;28;20581;-91
2023/01/07 01:59:01;;;;;;;3.33;2.93;;;;;;;18.40;52.89;97808.19;4967372;28;20207;-91
2023/01/07 02:01:35;;;;;;;3.30;2.93;;;;;;;17.33;52.98;97570.13;4960188;28;20258;-91
2023/01/07 02:04:20;;;;;;;2.60;2.40;;;;;;;14.28;53.55;97034.13;4966517;28;20211;-92
2023/01/07 02:06:51;;;;;;;3.40;3.10;;;;;;;15.76;53.01;97319.81;4971869;28;20207;-91
2023/01/07 02:09:18;;;;;;;3.37;3.07;;;;;;;16.89;52.88;97485.94;4959194;28;20200;-91
2023/01/07 02:11:50;;;;;;;3.37;3.07;;;;;;;16.98;52.91;97503.25;4981106;28;20222;-91
2023/01/07 02:15:04;;;;;;;3.07;2.77;;;;;;;15.87;52.96;97317.00;4954064;28;20206;-91
2023/01/07 02:17:52;;;;;;;3.00;2.80;;;;;;;19.39;53.08;97910.41;4950081;28;20668;-87
2023/01/07 02:20:43;;;;;;;2.63;2.43;;;;;;;19.54;53.23;97936.56;4957733;28;20216;-91
2023/01/07 02:23:28;;;;;;;2.90;2.70;;;;;;;19.53;53.09;97937.38;4974333;28;20215;-91
2023/01/07 02:26:02;;;;;;;3.03;2.80;;;;;;;19.53;53.09;97934.81;4972129;28;20644;-90
2023/01/07 02:28:35;;;;;;;3.20;2.90;;;;;;;18.25;53.21;97706.59;4984266;28;20199;-91
2023/01/07 02:31:40;;;;;;;2.90;2.70;;;;;;;19.53;52.98;97929.72;4975779;28;20230;-91
2023/01/07 02:41:03;;;;;;;2.70;2.50;;;;;;;18.90;52.92;97802.03;5048472;28;20197;-92
2023/01/07 02:48:11;;;;;;;3.10;2.80;;;;;;;17.59;52.91;97601.84;5008455;28;20191;-92
2023/01/07 02:52:05;;;;;;;2.80;2.60;;;;;;;16.73;52.72;97436.94;4930139;28;20190;-92
2023/01/07 02:55:38;;;;;;;2.67;2.47;;;;;;;19.53;53.06;97932.28;5012466;28;20205;-91
2023/01/07 03:17:49;;;;;;;;;;;;;;;;;;;;;
2023/01/07 03:21:03;;;;;;;3.10;2.90;;;;;;;18.59;52.81;97731.88;4822177;29;20242;-93
2023/01/07 03:24:45;;;;;;;2.90;2.57;;;;;;;19.54;52.98;97887.25;4836097;29;20218;-92
2023/01/07 03:42:59;;;;;;;2.47;2.27;;;;;;;19.51;53.02;97862.50;4948310;28;20196;-90
2023/01/07 03:50:15;;;;;;;2.70;2.50;;;;;;;19.52;53.02;97860.81;4963482;28;20200;-92
2023/01/07 04:09:07;;;;;;;2.30;2.10;;;;;;;18.79;53.03;97701.38;4886484;23;20270;-93
2023/01/07 04:12:48;;;;;;;2.50;2.30;;;;;;;19.53;53.04;97827.75;4951250;28;20215;-92
2023/01/07 04:15:27;;;;;;;2.47;2.27;;;;;;;17.55;53.11;97478.84;4907494;28;20196;-92
2023/01/07 04:18:16;;;;;;;2.63;2.43;;;;;;;17.36;53.04;97444.91;4958866;28;20190;-93
2023/01/07 04:21:07;;;;;;;2.50;2.30;;;;;;;16.68;52.88;97349.56;4899190;29;20212;-92
2023/01/07 04:24:10;;;;;;;2.50;2.30;;;;;;;19.54;52.92;97814.19;4884245;29;20206;-92
2023/01/07 04:27:32;;;;;;;2.60;2.40;;;;;;;19.54;52.91;97810.78;4881373;29;20197;-93
2023/01/07 04:30:40;;;;;;;2.90;2.70;;;;;;;17.29;52.76;97427.69;4939830;28;20229;-92
2023/01/07 04:33:15;;;;;;;2.60;2.40;;;;;;;19.57;52.94;97803.28;4923432;28;20245;-92
2023/01/07 04:36:31;;;;;;;2.70;2.50;;;;;;;18.19;52.79;97567.28;4928882;28;20424;-92
2023/01/07 04:39:11;;;;;;;2.60;2.40;;;;;;;17.83;53.00;97512.28;4926133;29;20213;-92
2023/01/07 04:42:46;;;;;;;2.57;2.37;;;;;;;16.87;52.79;97340.31;4924662;28;20181;-92
2023/01/07 04:46:27;;;;;;;2.30;2.20;;;;;;;19.54;52.78;97793.78;4903576;29;20190;-92
2023/01/07 04:55:50;;;;;;;2.83;2.47;;;;;;;18.89;52.93;97689.94;5189276;23;20235;-91
2023/01/07 04:59:32;;;;;;;;;;;;;;;;;;;;;
2023/01/07 05:10:19;;;;;;;;;;;;;;;;;;;;;
2023/01/07 05:14:13;;;;;;;2.30;2.10;;;;;;;19.52;53.07;97781.81;4844843;29;20244;-91
2023/01/07 05:21:27;;;;;;;2.70;2.40;;;;;;;17.95;53.00;97514.50;4805538;29;20285;-91
2023/01/07 05:38:30;;;;;;;2.50;2.07;;;;;;;16.45;52.84;97234.41;5742560;23;20225;-90
2023/01/07 05:42:10;;;;;;;2.30;2.10;;;;;;;16.49;52.92;97270.91;4977345;28;20283;-91
2023/01/07 05:45:06;;;;;;;2.23;2.10;;;;;;;19.32;52.92;97712.19;4969080;28;20204;-91
2023/01/07 05:52:28;;;;;;;2.40;2.20;;;;;;;17.28;52.68;97357.34;5000192;28;20279;-90
2023/01/07 06:03:03;;;;;;;2.50;2.30;;;;;;;16.63;52.89;97252.09;4916181;29;20241;-91
2023/01/07 06:10:49;;;;;;;;;;;;;;;;;;;;;
2023/01/07 06:14:05;;;;;;;;;;;;;;;;;;;;;
2023/01/07 06:17:39;;;;;;;1.93;1.83;;;;;;;16.37;52.77;97192.56;4884503;29;20218;-90
2023/01/07 06:24:49;;;;;;;2.30;2.10;;;;;;;19.52;52.97;97731.72;4931802;29;20578;-90
2023/01/07 06:28:17;;;;;;;1.90;1.80;;;;;;;18.05;52.71;97534.41;4939550;29;20208;-91
2023/01/07 06:31:46;;;;;;;1.90;1.80;;;;;;;19.51;52.79;97729.09;4936741;29;20184;-91
2023/01/07 06:35:16;;;;;;;;;;;;;;;;;;;;;
2023/01/07 06:38:51;;;;;;;2.33;2.13;;;;;;;19.51;53.03;97719.75;4943186;29;20289;-89
2023/01/07 06:42:26;;;;;;;;;;;;;;;;;;;;;
2023/01/07 06:45:46;;;;;;;2.13;2.03;;;;;;;16.39;52.85;97168.16;4927087;29;20242;-91
2023/01/07 06:49:13;;;;;;;2.20;2.00;;;;;;;18.94;52.99;97610.34;4967335;28;20178;-90
2023/01/07 06:55:38;;;;;;;2.30;2.10;;;;;;;16.88;53.05;97282.81;4998076;28;20214;-91
2023/01/07 06:58:51;;;;;;;1.90;1.80;;;;;;;19.52;53.02;97706.22;4986394;28;20200;-88
2023/01/07 07:02:05;;;;;;;2.00;1.90;;;;;;;17.05;52.70;97280.19;5017438;28;20234;-90
2023/01/07 07:07:24;;;;;;;2.00;1.90;;;;;;;19.17;52.71;97647.81;5051428;28;20193;-88
2023/01/07 07:09:52;;;;;;;2.30;2.10;;;;;;;19.08;52.69;97623.66;5043487;28;20247;-90
2023/01/07 07:12:19;;;;;;;2.70;2.30;;;;;;;19.55;52.69;97700.34;5003246;28;20216;-87
2023/01/07 07:14:46;;;;;;;2.20;2.00;;;;;;;18.69;52.49;97560.91;5038991;28;20292;-90
2023/01/07 07:17:16;;;;;;;2.37;2.17;;;;;;;18.82;52.57;97576.75;5041351;28;20193;-88
2023/01/07 07:19:43;;;;;;;2.10;2.00;;;;;;;18.55;52.64;97532.38;5029725;28;20228;-89
2023/01/07 07:22:11;;;;;;;2.10;2.00;;;;;;;18.44;52.56;97508.13;5027118;28;20189;-88
2023/01/07 07:24:38;;;;;;;1.90;1.80;;;;;;;19.53;52.73;97696.88;5018011;28;20263;-90
2023/01/07 07:27:05;;;;;;;2.03;1.87;;;;;;;18.94;52.63;97594.19;5041116;28;20215;-90
2023/01/07 07:29:33;;;;;;;2.13;2.03;;;;;;;18.84;52.73;97577.69;5013046;28;20208;-89
2023/01/07 07:32:00;;;;;;;2.57;2.00;;;;;;;18.98;52.67;97601.16;5056692;28;20240;-89
2023/01/07 07:34:27;;;;;;;2.00;1.90;;;;;;;19.30;52.73;97657.72;5014390;28;20224;-87
2023/01/07 07:36:55;;;;;;;2.10;1.90;;;;;;;19.35;52.71;97668.97;5017973;28;20225;-90
2023/01/07 07:39:22;;;;;;;2.00;1.90;;;;;;;19.05;52.44;97621.84;5044338;28;20189;-90
2023/01/07 07:41:50;;;;;;;2.07;1.97;;;;;;;18.80;52.67;97560.53;5034160;28;20305;-89
2023/01/07 07:44:36;;;;;;;2.20;2.00;;;;;;;17.53;52.69;97352.56;5039672;28;20213;-89
2023/01/07 07:48:17;;;;;;;1.93;1.83;;;;;;;16.74;52.76;97222.97;4961676;28;20203;-90
2023/01/07 07:54:43;;;;;;;2.00;1.90;;;;;;;17.17;52.62;97272.25;4915185;29;20446;-88
2023/01/07 07:57:10;;;;;;;2.23;2.03;;;;;;;19.46;53.12;97666.84;4915578;29;20237;-89
2023/01/07 07:59:36;;;;;;;2.10;2.00;;;;;;;18.43;52.74;97472.47;4906182;29;20289;-89
2023/01/07 08:02:03;;;;;;;1.90;1.73;;;;;;;18.91;53.08;97556.75;4905913;29;20881;-89
2023/01/07 08:04:32;;;;;;;1.80;1.70;;;;;;;19.24;52.94;97621.78;4894398;29;20244;-90
2023/01/07 08:07:00;;;;;;;1.80;1.70;;;;;;;18.77;52.72;97532.41;4911262;29;20237;-89
2023/01/07 08:09:26;;;;;;;2.23;2.03;;;;;;;19.47;52.84;97643.97;4914283;29;20218;-89
2023/01/07 08:11:53;;;;;;;1.80;1.70;;;;;;;19.48;52.77;97648.25;4911828;29;20210;-90
2023/01/07 08:14:20;;;;;;;1.90;1.80;;;;;;;18.76;52.75;97515.41;4909158;29;20300;-89
2023/01/07 08:16:46;;;;;;;1.70;1.60;;;;;;;19.22;52.58;97595.34;4899108;29;20408;-89
2023/01/07 08:19:14;;;;;;;1.90;1.80;;;;;;;19.13;52.95;97584.81;4911562;29;20797;-89
2023/01/07 08:21:40;;;;;;;1.80;1.70;;;;;;;19.21;52.73;97585.09;4913656;29;20230;-91
2023/01/07 08:24:07;;;;;;;2.37;2.17;;;;;;;19.31;52.63;97603.44;4934806;28;20215;-90
2023/01/07 08:26:33;;;;;;;1.90;1.80;;;;;;;19.24;52.86;97614.13;4953515;28;20204;-90
2023/01/07 08:29:00;;;;;;;1.90;1.80;;;;;;;19.12;52.67;97569.47;5025333;28;20193;-89
2023/01/07 08:31:27;;;;;;;1.90;1.80;;;;;;;19.17;52.65;97576.50;5054161;28;20669;-88
2023/01/07 08:33:53;;;;;;;2.40;2.20;;;;;;;19.09;52.38;97547.28;5018570;28;20312;-88
2023/01/07 08:36:20;;;;;;;2.40;2.20;;;;;;;19.43;52.37;97605.56;5021586;28;20229;-88
2023/01/07 08:38:50;;;;;;;2.33;2.13;;;;;;;19.38;52.45;97602.84;5032141;28;20197;-88
2023/01/07 08:41:17;;;;;;;2.27;2.07;;;;;;;19.32;52.44;97587.31;5015930;28;20207;-88
2023/01/07 08:43:44;;;;;;;1.83;1.73;;;;;;;19.39;52.49;97589.28;5009190;28;20244;-89
2023/01/07 08:46:11;;;;;;;1.70;1.60;;;;;;;19.22;52.40;97561.38;5014169;28;20199;-86
2023/01/07 08:48:39;;;;;;;2.00;1.80;;;;;;;19.31;52.17;97590.69;5037921;28;20225;-88
2023/01/07 08:51:05;;;;;;;1.93;1.73;;;;;;;19.09;52.28;97529.47;5049882;28;20193;-88
2023/01/07 08:53:32;;;;;;;2.10;2.00;;;;;;;19.14;52.08;97534.72;5026000;28;20302;-89
2023/01/07 08:55:59;;;;;;;3.00;2.10;;;;;;;19.42;52.18;97581.75;5030608;28;20239;-89
2023/01/07 08:58:25;;;;;;;1.93;1.83;;;;;;;19.13;52.22;97538.09;5013057;28;20204;-89
2023/01/07 09:00:52;;;;;;;2.13;1.93;;;;;;;19.41;52.59;97581.69;5027449;28;20276;-89
2023/01/07 09:03:19;;;;;;;1.80;1.70;;;;;;;19.39;52.02;97575.69;5001254;28;20743;-89
2023/01/07 09:05:45;;;;;;;1.73;1.63;;;;;;;19.44;52.33;97571.63;5001027;28;20217;-88
2023/01/07 09:08:12;;;;;;;1.87;1.77;;;;;;;19.41;52.22;97576.59;5040259;28;20220;-88
2023/01/07 09:10:39;;;;;;;3.73;1.80;;;;;;;19.40;52.02;97570.66;5013384;28;20304;-88
2023/01/07 09:13:05;;;;;;;3.80;2.37;;;;;;;19.49;52.04;97581.19;5009324;28;20221;-88
2023/01/07 09:15:32;;;;;;;2.37;2.17;;;;;;;19.43;51.36;97568.22;5002253;28;20247;-88
2023/01/07 09:17:58;;;;;;;3.17;2.67;;;;;;;19.28;51.52;97541.28;5018725;28;20216;-88
2023/01/07 09:20:25;;;;;;;3.03;2.73;;;;;;;19.51;51.19;97579.56;5017352;28;20571;-89
2023/01/07 09:22:51;;;;;;;3.20;2.67;;;;;;;19.45;50.97;97566.56;5000304;28;20193;-87
2023/01/07 09:25:18;;;;;;;2.67;2.47;;;;;;;19.65;50.66;97596.25;5022097;28;20240;-88
2023/01/07 09:27:45;;;;;;;3.63;2.40;;;;;;;19.10;50.61;97503.16;5020856;28;20240;-88
2023/01/07 09:30:11;;;;;;;3.30;2.30;;;;;;;19.41;50.79;97562.19;5035393;28;20197;-87
2023/01/07 09:32:38;;;;;;;2.90;2.60;;;;;;;19.06;50.84;97501.31;5035502;28;20261;-89
2023/01/07 09:35:05;;;;;;;2.70;2.50;;;;;;;19.57;50.88;97582.34;5017633;28;20200;-88
2023/01/07 09:37:32;;;;;;;2.57;2.37;;;;;;;19.36;50.88;97545.00;5025001;28;20232;-88
2023/01/07 09:40:00;;;;;;;3.53;2.37;;;;;;;19.30;50.79;97537.13;5009923;28;20586;-88
2023/01/07 09:42:32;;;;;;;2.70;2.40;;;;;;;19.64;50.74;97586.88;5032436;28;20197;-87
2023/01/07 09:45:13;;;;;;;2.80;2.50;;;;;;;19.64;50.66;97586.88;5028978;28;20274;-88
2023/01/07 09:47:42;;;;;;;2.80;2.50;;;;;;;19.01;50.84;97474.81;5044428;28;20216;-88
2023/01/07 09:50:43;;;;;;;2.27;2.03;;;;;;;19.50;51.01;97565.06;5016284;28;20237;-88
2023/01/07 09:53:17;;;;;;;2.60;2.40;;;;;;;19.25;51.07;97513.09;5002219;28;20760;-87
2023/01/07 09:55:44;;;;;;;5.73;2.60;;;;;;;19.12;50.90;97487.94;5034237;28;20269;-88
2023/01/07 09:58:30;;;;;;;3.87;2.50;;;;;;;19.41;50.62;97541.78;5031134;28;20205;-88
2023/01/07 10:01:09;;;;;;;5.00;2.30;;;;;;;19.65;51.15;97583.50;5019867;28;20287;-88
2023/01/07 10:03:49;;;;;;;3.00;2.40;;;;;;;19.65;51.11;97575.84;5064334;28;20276;-93
2023/01/07 10:06:24;;;;;;;6.23;2.53;;;;;;;19.65;51.53;97569.88;5046220;28;20268;-93
2023/01/07 10:09:31;;;;;;;2.33;2.10;;;;;;;19.65;51.42;97570.75;5055289;28;20457;-92
2023/01/07 10:12:03;;;;;;;5.37;2.10;;;;;;;19.65;51.38;97563.09;5052882;28;20197;-88
2023/01/07 10:14:43;;;;;;;6.43;2.33;;;;;;;19.04;51.55;97453.69;5049811;28;20220;-88
2023/01/07 10:17:48;;;;;;;5.43;2.33;;;;;;;19.65;51.51;97564.78;5043110;28;20264;-87
2023/01/07 10:20:39;;;;;;;5.17;2.40;;;;;;;19.65;51.72;97549.47;5047800;28;20181;-87
2023/01/07 10:23:11;;;;;;;8.73;2.60;;;;;;;19.62;51.70;97550.25;5064623;28;20465;-87
2023/01/07 10:25:49;;;;;;;4.57;2.43;;;;;;;19.63;51.73;97557.06;5036859;28;20185;-87
2023/01/07 10:28:24;;;;;;;6.53;2.40;;;;;;;18.07;51.59;97278.53;5032335;28;20202;-88
2023/01/07 10:30:51;;;;;;;5.43;2.70;;;;;;;19.34;51.74;97509.25;5064549;28;20204;-87
2023/01/07 10:33:25;;;;;;;9.73;2.40;;;;;;;19.63;51.84;97544.31;5025633;28;20327;-86
2023/01/07 10:36:07;;;;;;;3.53;2.00;;;;;;;19.63;51.76;97533.28;5063893;28;20215;-87
2023/01/07 10:38:36;;;;;;;4.47;2.13;;;;;;;19.03;51.88;97439.19;5062494;28;20197;-88
2023/01/07 10:41:07;;;;;;;5.27;2.40;;;;;;;18.85;51.96;97398.66;5043327;28;21310;-87
2023/01/07 10:43:44;;;;;;;4.10;2.10;;;;;;;18.89;51.95;97418.31;5049248;28;20229;-87
2023/01/07 10:46:13;;;;;;;4.90;2.10;;;;;;;19.62;52.07;97527.28;5035610;28;20187;-86
2023/01/07 10:48:43;;;;;;;3.20;2.00;;;;;;;19.62;51.96;97519.66;5050755;28;20201;-88
2023/01/07 10:51:19;;;;;;;2.53;1.93;;;;;;;19.61;51.98;97511.94;5065002;28;20185;-87
2023/01/07 10:54:10;;;;;;;4.73;2.00;;;;;;;19.62;52.03;97517.09;5066810;28;20247;-87
2023/01/07 10:56:42;;;;;;;7.07;2.10;;;;;;;19.14;52.02;97428.63;5049624;28;20185;-88
2023/01/07 10:59:12;;;;;;;3.30;2.07;;;;;;;19.61;52.35;97499.19;5050436;28;20540;-88
2023/01/07 11:01:40;;;;;;;4.03;1.97;;;;;;;19.22;52.20;97445.03;5022314;28;20186;-87
2023/01/07 11:04:11;;;;;;;3.57;1.63;;;;;;;19.31;52.16;97442.00;5042797;28;20203;-89
2023/01/07 11:07:03;;;;;;;3.97;1.90;;;;;;;19.62;52.16;97488.19;5024026;28;20201;-89
2023/01/07 11:09:41;;;;;;;2.27;1.77;;;;;;;18.49;52.09;97292.03;5057051;28;20189;-88
2023/01/07 11:12:36;;;;;;;3.30;1.80;;;;;;;18.66;52.08;97336.81;5027008;28;20184;-88
2023/01/07 11:15:12;;;;;;;1.70;1.60;;;;;;;19.50;52.08;97446.94;5060084;28;20249;-88
2023/01/07 11:17:45;;;;;;;4.63;1.97;;;;;;;19.56;52.31;97475.22;5045206;28;20236;-88
2023/01/07 11:20:12;;;;;;;3.47;1.63;;;;;;;19.63;51.88;97465.28;5040282;28;20211;-88
2023/01/07 11:22:38;;;;;;;3.83;2.20;;;;;;;19.47;51.96;97429.88;5029421;28;20261;-87
2023/01/07 11:25:26;;;;;;;4.00;2.20;;;;;;;19.14;51.46;97382.78;5050360;28;20205;-89
2023/01/07 11:27:52;;;;;;;7.20;1.93;;;;;;;18.27;51.62;97210.63;5033088;28;20588;-88
2023/01/07 11:30:25;;;;;;;6.97;2.00;;;;;;;18.93;51.94;97325.09;5037126;28;20282;-87
2023/01/07 11:33:04;;;;;;;27.70;2.47;;;;;;;19.45;51.73;97415.38;5032227;28;20264;-88
2023/01/07 11:35:31;;;;;;;7.00;2.20;;;;;;;19.38;51.90;97408.28;5007150;28;20201;-90
2023/01/07 11:37:58;;;;;;;4.90;2.17;;;;;;;18.99;51.66;97325.31;5008053;28;20212;-89
2023/01/07 11:40:29;;;;;;;3.17;1.70;;;;;;;19.44;51.77;97401.75;5004294;28;20205;-88
2023/01/07 11:43:22;;;;;;;4.37;1.90;;;;;;;19.52;52.00;97427.50;5002454;28;20211;-87
2023/01/07 11:45:53;;;;;;;2.50;1.90;;;;;;;19.36;51.83;97369.16;5043675;28;20200;-89
2023/01/07 11:48:59;;;;;;;4.07;1.90;;;;;;;18.86;51.65;97290.88;5064085;28;20422;-90
2023/01/07 11:51:26;;;;;;;5.00;1.90;;;;;;;18.79;52.34;97255.84;5045725;28;20644;-88
2023/01/07 11:53:55;;;;;;;18.73;2.00;;;;;;;19.29;51.87;97347.69;5045346;28;20244;-88
2023/01/07 11:56:23;;;;;;;10.47;2.17;;;;;;;19.61;51.88;97394.69;5051414;28;21063;-87
2023/01/07 11:58:51;;;;;;;2.40;1.70;;;;;;;19.50;52.39;97380.69;5045460;28;20216;-89
2023/01/07 12:01:19;;;;;;;2.73;1.90;;;;;;;19.45;52.33;97366.94;5017608;28;20197;-88
2023/01/07 12:03:51;;;;;;;3.20;2.03;;;;;;;19.60;52.03;97386.16;5054897;28;20221;-89
2023/01/07 12:06:24;;;;;;;7.83;1.90;;;;;;;19.31;52.42;97335.00;5055551;28;20189;-89
2023/01/07 12:09:00;;;;;;;2.13;1.53;;;;;;;19.18;52.21;97307.31;5020076;28;20685;-88
2023/01/07 12:15:40;;;;;;;1.80;1.50;;;;;;;18.77;52.15;97244.75;5062896;28;20212;-91
2023/01/07 12:18:10;;;;;;;1.73;1.63;;;;;;;19.61;52.32;97369.19;5044898;28;20205;-94
2023/01/07 12:20:37;;;;;;;5.20;1.80;;;;;;;19.61;52.07;97362.41;5041878;28;20207;-94
2023/01/07 12:23:16;;;;;;;2.70;1.77;;;;;;;19.62;52.07;97360.72;5075783;28;20196;-93
2023/01/07 12:25:49;;;;;;;1.77;1.60;;;;;;;19.62;52.21;97360.72;5028858;28;20193;-88
2023/01/07 12:28:40;;;;;;;2.57;1.67;;;;;;;19.44;52.35;97334.59;5045145;28;20200;-87
2023/01/07 12:31:19;;;;;;;3.47;1.60;;;;;;;19.46;52.52;97333.84;5032023;28;21095;-86
2023/01/07 12:33:56;;;;;;;2.30;1.50;;;;;;;19.04;52.29;97260.13;5024191;28;20220;-88
2023/01/07 12:36:31;;;;;;;3.03;1.70;;;;;;;19.01;52.39;97249.84;5015052;28;20204;-88
2023/01/07 12:38:58;;;;;;;2.17;1.53;;;;;;;19.32;51.88;97303.59;5002514;28;20774;-87
2023/01/07 12:41:26;;;;;;;2.23;1.90;;;;;;;18.85;52.09;97211.91;5013342;28;20268;-88
2023/01/07 12:44:01;;;;;;;2.20;1.50;;;;;;;19.11;52.01;97262.06;5019008;28;20226;-88
2023/01/07 12:46:39;;;;;;;1.80;1.53;;;;;;;19.47;52.14;97320.28;5002622;28;20698;-88
2023/01/07 12:49:14;;;;;;;2.07;1.67;;;;;;;19.38;52.05;97309.78;5005477;28;20217;-87
2023/01/07 12:52:19;;;;;;;4.17;1.90;;;;;;;18.96;52.39;97234.41;5022291;28;20200;-87
2023/01/07 12:54:55;;;;;;;2.77;1.70;;;;;;;19.33;52.38;97287.53;5021080;28;20221;-87
2023/01/07 12:57:29;;;;;;;2.77;1.80;;;;;;;19.11;52.10;97249.34;5022987;28;20275;-88
2023/01/07 13:00:23;;;;;;;2.73;1.70;;;;;;;18.93;52.22;97218.16;4997083;28;20204;-89
2023/01/07 13:02:57;;;;;;;2.40;1.43;;;;;;;19.41;52.35;97302.25;5004622;28;20247;-87
2023/01/07 13:05:37;;;;;;;2.37;1.50;;;;;;;19.14;52.24;97252.88;5033926;28;20316;-89
2023/01/07 13:08:22;;;;;;;2.30;1.47;;;;;;;19.62;52.19;97332.69;5030759;28;20197;-88
2023/01/07 13:10:52;;;;;;;2.03;1.70;;;;;;;19.28;52.17;97271.19;5030293;28;20221;-87
2023/01/07 13:13:24;;;;;;;1.73;1.63;;;;;;;19.44;52.43;97301.47;5002157;28;20237;-86
2023/01/07 13:15:52;;;;;;;1.50;1.40;;;;;;;18.97;52.41;97217.44;5016223;28;21067;-88
2023/01/07 13:18:19;;;;;;;2.03;1.57;;;;;;;19.41;52.54;97296.28;5030521;28;20212;-88
2023/01/07 13:21:04;;;;;;;2.73;1.60;;;;;;;18.90;52.40;97208.72;5011232;28;20295;-87
2023/01/07 13:23:49;;;;;;;2.00;1.77;;;;;;;19.62;52.50;97317.38;5019189;28;20347;-88
2023/01/07 13:26:24;;;;;;;3.67;1.67;;;;;;;19.39;52.37;97291.13;5029292;28;20206;-88
2023/01/07 13:28:50;;;;;;;2.80;1.60;;;;;;;19.62;52.60;97327.56;5013457;28;20204;-88
2023/01/07 13:31:35;;;;;;;2.27;1.57;;;;;;;19.09;52.41;97234.00;5029598;28;20235;-88
2023/01/07 13:34:18;;;;;;;3.00;1.77;;;;;;;19.38;52.46;97278.31;5029921;28;20232;-88
2023/01/07 13:36:48;;;;;;;2.07;1.40;;;;;;;19.59;52.55;97313.06;5012367;28;21458;-88
2023/01/07 13:39:27;;;;;;;3.97;1.80;;;;;;;19.60;52.52;97317.31;5040570;28;20292;-86
2023/01/07 13:41:56;;;;;;;1.57;1.33;;;;;;;19.61;52.77;97325.84;5043962;28;20300;-87
2023/01/07 13:44:31;;;;;;;2.17;1.47;;;;;;;19.61;52.63;97316.53;5042372;28;20231;-87
2023/01/07 13:46:58;;;;;;;1.50;1.40;;;;;;;19.53;52.50;97302.66;5030661;28;20227;-88
2023/01/07 13:49:29;;;;;;;1.50;1.40;;;;;;;19.21;52.39;97254.78;5000601;28;20205;-88
2023/01/07 13:52:03;;;;;;;3.03;1.60;;;;;;;19.04;52.51;97209.19;5030906;28;20210;-88
2023/01/07 13:54:51;;;;;;;3.10;1.60;;;;;;;19.60;52.59;97314.78;5035201;28;21048;-88
2023/01/07 13:57:30;;;;;;;1.50;1.40;;;;;;;19.60;52.70;97317.31;5031706;28;23369;-87
2023/01/07 13:59:58;;;;;;;1.40;1.30;;;;;;;19.27;52.65;97254.19;5029598;28;20205;-88
2023/01/07 14:02:25;;;;;;;1.67;1.30;;;;;;;19.28;52.49;97253.38;5015726;28;20258;-88
2023/01/07 14:05:24;;;;;;;1.50;1.40;;;;;;;19.62;52.41;97300.41;5020185;28;20689;-88
2023/01/07 14:07:56;;;;;;;1.50;1.40;;;;;;;19.10;52.39;97212.81;5027335;28;20280;-88
2023/01/07 14:10:31;;;;;;;1.63;1.53;;;;;;;19.24;52.35;97234.53;4997078;28;20297;-87
2023/01/07 14:13:03;;;;;;;1.90;1.47;;;;;;;19.63;52.54;97299.59;5027749;28;20243;-88
2023/01/07 14:15:54;;;;;;;1.80;1.57;;;;;;;19.64;52.40;97287.72;5025390;28;20216;-88
2023/01/07 14:18:36;;;;;;;1.67;1.47;;;;;;;19.24;52.32;97221.78;5038769;28;20201;-88
2023/01/07 14:21:16;;;;;;;4.60;1.50;;;;;;;19.15;52.50;97205.31;5028116;28;20209;-88
2023/01/07 14:23:52;;;;;;;2.53;1.40;;;;;;;19.62;52.86;97300.41;5028695;28;20722;-87
2023/01/07 14:26:24;;;;;;;2.50;1.37;;;;;;;19.62;52.66;97287.66;5027212;28;20288;-87
2023/01/07 14:29:13;;;;;;;2.07;1.50;;;;;;;18.98;52.66;97176.72;5047572;28;20205;-88
2023/01/07 14:31:40;;;;;;;1.50;1.40;;;;;;;18.08;52.55;97021.78;5026987;28;20217;-87
2023/01/07 14:34:14;;;;;;;1.50;1.40;;;;;;;19.38;52.39;97256.28;5021094;28;20253;-88
2023/01/07 14:37:00;;;;;;;1.47;1.37;;;;;;;19.61;52.51;97296.13;5005278;28;20280;-87
2023/01/07 14:39:31;;;;;;;2.97;1.53;;;;;;;19.09;52.59;97215.28;5050723;28;20196;-88
2023/01/07 14:42:17;;;;;;;1.73;1.40;;;;;;;19.60;52.54;97291.84;5016252;28;20209;-87
2023/01/07 14:44:47;;;;;;;1.80;1.60;;;;;;;19.51;52.77;97285.59;5029020;28;20258;-86
2023/01/07 14:47:34;;;;;;;1.40;1.30;;;;;;;18.83;52.66;97155.84;5032007;28;20303;-88
2023/01/07 14:50:49;;;;;;;1.70;1.60;;;;;;;19.59;52.83;97292.66;5038140;28;20268;-89
2023/01/07 14:53:33;;;;;;;1.43;1.33;;;;;;;19.03;52.92;97202.34;5022126;28;20247;-89
2023/01/07 14:56:06;;;;;;;2.33;1.50;;;;;;;19.59;52.57;97287.56;5045337;28;20719;-88
2023/01/07 14:58:51;;;;;;;2.00;1.47;;;;;;;19.60;52.90;97296.09;5029961;28;20680;-88